Terminal Aerodrome Forecast
Issued by NWS

Current Version | Previous Version | Graphics & Text | Print | Product List | Glossary On
Versions: 1 2 3 4 5 6 7 8 9 10 11 12 13 14 15 16 17 18 19 20 21 22 23 24 25 26 27 28
000
FTUS41 KRNK 262007 AAB
TAFLWB
TAF AMD
KLWB 262007Z 2620/2718 23005KT P6SM -SHRA SCT025 BKN035
      TEMPO 2620/2622 5SM -SHRA BKN025
     FM262300 20003KT P6SM VCSH BKN040 OVC100
     FM270800 00000KT 4SM SHRA BR SCT025 OVC040
     FM271400 25005KT P6SM SCT015 BKN035=

USA.gov is the U.S. government's official web portal to all federal, state and local government web resources and services.